sensor_id;sensor_type;location;lat;lon;timestamp;P1;durP1;ratioP1;P2;durP2;ratioP2
56285;SDS011;42191;47.562;9.686;2022-07-22T00:01:39;35.13;;;32.67;;
56285;SDS011;42191;47.562;9.686;2022-07-22T00:04:05;35.58;;;32.97;;
56285;SDS011;42191;47.562;9.686;2022-07-22T00:06:31;36.10;;;33.60;;
56285;SDS011;42191;47.562;9.686;2022-07-22T00:08:57;36.75;;;34.00;;
56285;SDS011;42191;47.562;9.686;2022-07-22T00:11:23;36.97;;;34.03;;
56285;SDS011;42191;47.562;9.686;2022-07-22T00:13:50;35.55;;;32.65;;
56285;SDS011;42191;47.562;9.686;2022-07-22T00:16:16;36.33;;;33.72;;
56285;SDS011;42191;47.562;9.686;2022-07-22T00:18:42;36.80;;;34.08;;
56285;SDS011;42191;47.562;9.686;2022-07-22T00:21:09;35.40;;;32.92;;
56285;SDS011;42191;47.562;9.686;2022-07-22T00:23:35;36.25;;;33.50;;
56285;SDS011;42191;47.562;9.686;2022-07-22T00:26:01;34.50;;;31.98;;
56285;SDS011;42191;47.562;9.686;2022-07-22T00:28:27;35.60;;;33.00;;
56285;SDS011;42191;47.562;9.686;2022-07-22T00:30:53;34.10;;;31.65;;
56285;SDS011;42191;47.562;9.686;2022-07-22T00:33:19;36.97;;;34.17;;
56285;SDS011;42191;47.562;9.686;2022-07-22T00:35:45;36.92;;;34.22;;
56285;SDS011;42191;47.562;9.686;2022-07-22T00:38:11;36.10;;;33.53;;
56285;SDS011;42191;47.562;9.686;2022-07-22T00:40:37;36.22;;;33.45;;
56285;SDS011;42191;47.562;9.686;2022-07-22T00:43:03;36.55;;;33.85;;
56285;SDS011;42191;47.562;9.686;2022-07-22T00:45:30;36.58;;;33.78;;
56285;SDS011;42191;47.562;9.686;2022-07-22T00:47:56;36.50;;;33.75;;
56285;SDS011;42191;47.562;9.686;2022-07-22T00:50:22;35.50;;;32.97;;
56285;SDS011;42191;47.562;9.686;2022-07-22T00:52:48;35.47;;;32.97;;
56285;SDS011;42191;47.562;9.686;2022-07-22T00:55:15;37.78;;;35.08;;
56285;SDS011;42191;47.562;9.686;2022-07-22T00:57:41;37.25;;;34.60;;
56285;SDS011;42191;47.562;9.686;2022-07-22T01:00:09;36.85;;;34.22;;
56285;SDS011;42191;47.562;9.686;2022-07-22T01:02:39;36.40;;;33.80;;
56285;SDS011;42191;47.562;9.686;2022-07-22T01:05:05;36.25;;;33.42;;
56285;SDS011;42191;47.562;9.686;2022-07-22T01:07:32;36.28;;;33.67;;
56285;SDS011;42191;47.562;9.686;2022-07-22T01:09:58;35.28;;;32.67;;
56285;SDS011;42191;47.562;9.686;2022-07-22T01:12:24;36.47;;;33.80;;
56285;SDS011;42191;47.562;9.686;2022-07-22T01:14:50;35.65;;;33.22;;
56285;SDS011;42191;47.562;9.686;2022-07-22T01:17:16;35.13;;;32.53;;
56285;SDS011;42191;47.562;9.686;2022-07-22T01:19:42;34.97;;;32.58;;
56285;SDS011;42191;47.562;9.686;2022-07-22T01:22:08;35.38;;;32.72;;
56285;SDS011;42191;47.562;9.686;2022-07-22T01:24:35;36.60;;;33.90;;
56285;SDS011;42191;47.562;9.686;2022-07-22T01:27:01;35.65;;;33.15;;
56285;SDS011;42191;47.562;9.686;2022-07-22T01:29:27;36.47;;;33.88;;
56285;SDS011;42191;47.562;9.686;2022-07-22T01:31:54;35.13;;;32.28;;
56285;SDS011;42191;47.562;9.686;2022-07-22T01:34:20;36.55;;;33.95;;
56285;SDS011;42191;47.562;9.686;2022-07-22T01:36:46;36.45;;;33.95;;
56285;SDS011;42191;47.562;9.686;2022-07-22T01:39:12;35.78;;;33.25;;
56285;SDS011;42191;47.562;9.686;2022-07-22T01:41:39;36.38;;;33.78;;
56285;SDS011;42191;47.562;9.686;2022-07-22T01:44:05;36.55;;;33.85;;
56285;SDS011;42191;47.562;9.686;2022-07-22T01:46:31;36.67;;;34.13;;
56285;SDS011;42191;47.562;9.686;2022-07-22T01:48:57;36.30;;;33.65;;
56285;SDS011;42191;47.562;9.686;2022-07-22T01:51:23;36.42;;;33.83;;
56285;SDS011;42191;47.562;9.686;2022-07-22T01:53:49;37.00;;;34.15;;
56285;SDS011;42191;47.562;9.686;2022-07-22T01:56:15;38.00;;;35.13;;
56285;SDS011;42191;47.562;9.686;2022-07-22T01:58:42;36.88;;;34.15;;
56285;SDS011;42191;47.562;9.686;2022-07-22T02:01:08;35.28;;;32.88;;
56285;SDS011;42191;47.562;9.686;2022-07-22T02:03:35;35.80;;;33.20;;
56285;SDS011;42191;47.562;9.686;2022-07-22T02:06:01;35.35;;;32.75;;
56285;SDS011;42191;47.562;9.686;2022-07-22T02:08:28;37.92;;;35.13;;
56285;SDS011;42191;47.562;9.686;2022-07-22T02:10:54;36.13;;;33.53;;
56285;SDS011;42191;47.562;9.686;2022-07-22T02:13:20;36.83;;;34.15;;
56285;SDS011;42191;47.562;9.686;2022-07-22T02:15:46;36.65;;;34.00;;
56285;SDS011;42191;47.562;9.686;2022-07-22T02:18:13;35.08;;;32.58;;
56285;SDS011;42191;47.562;9.686;2022-07-22T02:20:41;37.35;;;34.47;;
56285;SDS011;42191;47.562;9.686;2022-07-22T02:23:08;35.75;;;33.20;;
56285;SDS011;42191;47.562;9.686;2022-07-22T02:25:36;37.25;;;34.47;;
56285;SDS011;42191;47.562;9.686;2022-07-22T02:28:02;36.67;;;33.90;;
56285;SDS011;42191;47.562;9.686;2022-07-22T02:30:29;36.88;;;34.28;;
56285;SDS011;42191;47.562;9.686;2022-07-22T02:32:55;37.72;;;34.92;;
56285;SDS011;42191;47.562;9.686;2022-07-22T02:35:22;37.05;;;34.45;;
56285;SDS011;42191;47.562;9.686;2022-07-22T02:37:48;34.83;;;32.22;;
56285;SDS011;42191;47.562;9.686;2022-07-22T02:40:14;37.03;;;34.38;;
56285;SDS011;42191;47.562;9.686;2022-07-22T02:42:40;36.25;;;33.65;;
56285;SDS011;42191;47.562;9.686;2022-07-22T02:45:07;35.00;;;32.50;;
56285;SDS011;42191;47.562;9.686;2022-07-22T02:47:34;36.20;;;33.50;;
56285;SDS011;42191;47.562;9.686;2022-07-22T02:50:00;36.20;;;33.65;;
56285;SDS011;42191;47.562;9.686;2022-07-22T02:52:26;36.63;;;34.00;;
56285;SDS011;42191;47.562;9.686;2022-07-22T02:54:52;37.92;;;34.92;;
56285;SDS011;42191;47.562;9.686;2022-07-22T02:57:18;36.92;;;34.22;;
56285;SDS011;42191;47.562;9.686;2022-07-22T02:59:45;37.70;;;34.78;;
56285;SDS011;42191;47.562;9.686;2022-07-22T03:02:11;36.28;;;33.67;;
56285;SDS011;42191;47.562;9.686;2022-07-22T03:04:37;35.50;;;32.95;;
56285;SDS011;42191;47.562;9.686;2022-07-22T03:07:03;36.80;;;33.88;;
56285;SDS011;42191;47.562;9.686;2022-07-22T03:09:29;36.92;;;34.13;;
56285;SDS011;42191;47.562;9.686;2022-07-22T03:11:55;36.78;;;34.10;;
56285;SDS011;42191;47.562;9.686;2022-07-22T03:14:21;35.70;;;33.25;;
56285;SDS011;42191;47.562;9.686;2022-07-22T03:16:47;36.40;;;33.78;;
56285;SDS011;42191;47.562;9.686;2022-07-22T03:19:13;36.88;;;34.17;;
56285;SDS011;42191;47.562;9.686;2022-07-22T03:21:39;36.20;;;33.53;;
56285;SDS011;42191;47.562;9.686;2022-07-22T03:24:05;36.22;;;33.60;;
56285;SDS011;42191;47.562;9.686;2022-07-22T03:26:31;35.72;;;33.00;;
56285;SDS011;42191;47.562;9.686;2022-07-22T03:28:58;37.00;;;34.30;;
56285;SDS011;42191;47.562;9.686;2022-07-22T03:31:24;36.55;;;33.92;;
56285;SDS011;42191;47.562;9.686;2022-07-22T03:33:50;37.03;;;34.13;;
56285;SDS011;42191;47.562;9.686;2022-07-22T03:36:16;37.55;;;34.90;;
56285;SDS011;42191;47.562;9.686;2022-07-22T03:38:42;35.25;;;32.58;;
56285;SDS011;42191;47.562;9.686;2022-07-22T03:41:08;38.55;;;35.55;;
56285;SDS011;42191;47.562;9.686;2022-07-22T03:43:34;37.90;;;35.20;;
56285;SDS011;42191;47.562;9.686;2022-07-22T03:46:00;38.45;;;35.45;;
56285;SDS011;42191;47.562;9.686;2022-07-22T03:48:26;37.22;;;34.55;;
56285;SDS011;42191;47.562;9.686;2022-07-22T03:50:52;36.55;;;34.05;;
56285;SDS011;42191;47.562;9.686;2022-07-22T03:53:18;36.08;;;33.40;;
56285;SDS011;42191;47.562;9.686;2022-07-22T03:55:45;36.50;;;33.88;;
56285;SDS011;42191;47.562;9.686;2022-07-22T03:58:12;36.38;;;33.78;;
56285;SDS011;42191;47.562;9.686;2022-07-22T04:00:38;38.72;;;36.03;;
56285;SDS011;42191;47.562;9.686;2022-07-22T04:03:04;36.08;;;33.47;;
56285;SDS011;42191;47.562;9.686;2022-07-22T04:05:30;38.22;;;35.42;;
56285;SDS011;42191;47.562;9.686;2022-07-22T04:07:56;36.08;;;33.40;;
56285;SDS011;42191;47.562;9.686;2022-07-22T04:10:22;36.53;;;33.80;;
56285;SDS011;42191;47.562;9.686;2022-07-22T04:12:48;37.78;;;34.90;;
56285;SDS011;42191;47.562;9.686;2022-07-22T04:15:14;37.72;;;35.10;;
56285;SDS011;42191;47.562;9.686;2022-07-22T04:17:40;37.38;;;34.78;;
56285;SDS011;42191;47.562;9.686;2022-07-22T04:20:07;36.95;;;34.25;;
56285;SDS011;42191;47.562;9.686;2022-07-22T04:22:33;37.67;;;34.97;;
56285;SDS011;42191;47.562;9.686;2022-07-22T04:24:59;37.42;;;34.72;;
56285;SDS011;42191;47.562;9.686;2022-07-22T04:27:25;35.90;;;33.30;;
56285;SDS011;42191;47.562;9.686;2022-07-22T04:29:51;35.58;;;33.00;;
56285;SDS011;42191;47.562;9.686;2022-07-22T04:32:18;36.05;;;33.55;;
56285;SDS011;42191;47.562;9.686;2022-07-22T04:34:44;33.75;;;31.33;;
56285;SDS011;42191;47.562;9.686;2022-07-22T04:37:10;35.22;;;32.80;;
56285;SDS011;42191;47.562;9.686;2022-07-22T04:39:36;35.90;;;33.38;;
56285;SDS011;42191;47.562;9.686;2022-07-22T04:42:02;35.88;;;33.20;;
56285;SDS011;42191;47.562;9.686;2022-07-22T04:44:29;37.55;;;34.95;;
56285;SDS011;42191;47.562;9.686;2022-07-22T04:46:55;36.38;;;33.78;;
56285;SDS011;42191;47.562;9.686;2022-07-22T04:49:21;37.85;;;35.22;;
56285;SDS011;42191;47.562;9.686;2022-07-22T04:51:48;35.03;;;32.50;;
56285;SDS011;42191;47.562;9.686;2022-07-22T04:54:14;35.30;;;32.50;;
56285;SDS011;42191;47.562;9.686;2022-07-22T04:56:40;36.63;;;33.83;;
56285;SDS011;42191;47.562;9.686;2022-07-22T04:59:06;36.65;;;34.05;;
56285;SDS011;42191;47.562;9.686;2022-07-22T05:01:32;36.55;;;34.00;;
56285;SDS011;42191;47.562;9.686;2022-07-22T05:03:58;37.42;;;34.55;;
56285;SDS011;42191;47.562;9.686;2022-07-22T05:06:24;36.38;;;33.60;;
56285;SDS011;42191;47.562;9.686;2022-07-22T05:08:50;36.03;;;33.38;;
56285;SDS011;42191;47.562;9.686;2022-07-22T05:11:17;36.90;;;33.92;;
56285;SDS011;42191;47.562;9.686;2022-07-22T05:13:43;37.03;;;34.38;;
56285;SDS011;42191;47.562;9.686;2022-07-22T05:16:09;36.72;;;33.92;;
56285;SDS011;42191;47.562;9.686;2022-07-22T05:18:35;35.58;;;33.13;;
56285;SDS011;42191;47.562;9.686;2022-07-22T05:21:02;34.85;;;32.45;;
56285;SDS011;42191;47.562;9.686;2022-07-22T05:23:29;36.25;;;33.55;;
56285;SDS011;42191;47.562;9.686;2022-07-22T05:25:55;35.90;;;33.30;;
56285;SDS011;42191;47.562;9.686;2022-07-22T05:28:21;36.53;;;33.92;;
56285;SDS011;42191;47.562;9.686;2022-07-22T05:30:47;35.55;;;32.85;;
56285;SDS011;42191;47.562;9.686;2022-07-22T05:33:13;35.38;;;32.88;;
56285;SDS011;42191;47.562;9.686;2022-07-22T05:35:39;36.08;;;33.47;;
56285;SDS011;42191;47.562;9.686;2022-07-22T05:38:05;35.45;;;32.78;;
56285;SDS011;42191;47.562;9.686;2022-07-22T05:40:32;35.30;;;32.60;;
56285;SDS011;42191;47.562;9.686;2022-07-22T05:42:58;36.28;;;33.67;;
56285;SDS011;42191;47.562;9.686;2022-07-22T05:45:24;35.72;;;33.15;;
56285;SDS011;42191;47.562;9.686;2022-07-22T05:47:50;36.28;;;33.53;;
56285;SDS011;42191;47.562;9.686;2022-07-22T05:50:16;35.17;;;32.65;;
56285;SDS011;42191;47.562;9.686;2022-07-22T05:52:43;34.70;;;32.22;;
56285;SDS011;42191;47.562;9.686;2022-07-22T05:55:09;35.65;;;32.95;;
56285;SDS011;42191;47.562;9.686;2022-07-22T05:57:35;33.35;;;30.67;;
56285;SDS011;42191;47.562;9.686;2022-07-22T06:00:02;34.47;;;31.98;;
56285;SDS011;42191;47.562;9.686;2022-07-22T06:02:29;35.75;;;33.15;;
56285;SDS011;42191;47.562;9.686;2022-07-22T06:04:55;35.13;;;32.63;;
56285;SDS011;42191;47.562;9.686;2022-07-22T06:07:21;35.00;;;32.33;;
56285;SDS011;42191;47.562;9.686;2022-07-22T06:09:47;35.25;;;32.60;;
56285;SDS011;42191;47.562;9.686;2022-07-22T06:12:14;35.83;;;32.90;;
56285;SDS011;42191;47.562;9.686;2022-07-22T06:14:40;34.50;;;32.05;;
56285;SDS011;42191;47.562;9.686;2022-07-22T06:17:06;35.10;;;32.38;;
56285;SDS011;42191;47.562;9.686;2022-07-22T06:19:32;35.10;;;32.30;;
56285;SDS011;42191;47.562;9.686;2022-07-22T06:21:58;35.03;;;32.47;;
56285;SDS011;42191;47.562;9.686;2022-07-22T06:24:24;36.70;;;33.78;;
56285;SDS011;42191;47.562;9.686;2022-07-22T06:26:51;33.05;;;30.65;;
56285;SDS011;42191;47.562;9.686;2022-07-22T06:29:17;34.15;;;31.60;;
56285;SDS011;42191;47.562;9.686;2022-07-22T06:31:43;35.75;;;32.97;;
56285;SDS011;42191;47.562;9.686;2022-07-22T06:34:09;34.50;;;32.00;;
56285;SDS011;42191;47.562;9.686;2022-07-22T06:36:35;34.65;;;32.22;;
56285;SDS011;42191;47.562;9.686;2022-07-22T06:39:01;36.00;;;33.30;;
56285;SDS011;42191;47.562;9.686;2022-07-22T06:41:27;36.45;;;33.88;;
56285;SDS011;42191;47.562;9.686;2022-07-22T06:43:54;35.53;;;32.85;;
56285;SDS011;42191;47.562;9.686;2022-07-22T06:46:20;34.85;;;31.95;;
56285;SDS011;42191;47.562;9.686;2022-07-22T06:48:46;36.53;;;33.05;;
56285;SDS011;42191;47.562;9.686;2022-07-22T06:51:12;36.85;;;33.75;;
56285;SDS011;42191;47.562;9.686;2022-07-22T06:53:38;35.25;;;32.63;;
56285;SDS011;42191;47.562;9.686;2022-07-22T06:56:04;34.70;;;31.90;;
56285;SDS011;42191;47.562;9.686;2022-07-22T06:58:30;35.55;;;32.88;;
56285;SDS011;42191;47.562;9.686;2022-07-22T07:00:56;35.67;;;32.67;;
56285;SDS011;42191;47.562;9.686;2022-07-22T07:03:23;33.83;;;31.42;;
56285;SDS011;42191;47.562;9.686;2022-07-22T07:05:50;33.30;;;30.38;;
56285;SDS011;42191;47.562;9.686;2022-07-22T07:08:17;36.83;;;34.03;;
56285;SDS011;42191;47.562;9.686;2022-07-22T07:10:43;35.35;;;32.85;;
56285;SDS011;42191;47.562;9.686;2022-07-22T07:13:09;35.67;;;33.00;;
56285;SDS011;42191;47.562;9.686;2022-07-22T07:15:35;33.85;;;31.33;;
56285;SDS011;42191;47.562;9.686;2022-07-22T07:18:01;34.53;;;31.95;;
56285;SDS011;42191;47.562;9.686;2022-07-22T07:20:28;34.15;;;31.58;;
56285;SDS011;42191;47.562;9.686;2022-07-22T07:22:54;34.33;;;31.50;;
56285;SDS011;42191;47.562;9.686;2022-07-22T07:25:20;35.03;;;32.22;;
56285;SDS011;42191;47.562;9.686;2022-07-22T07:27:46;34.35;;;31.95;;
56285;SDS011;42191;47.562;9.686;2022-07-22T07:30:12;35.63;;;33.00;;
56285;SDS011;42191;47.562;9.686;2022-07-22T07:32:39;35.10;;;32.50;;
56285;SDS011;42191;47.562;9.686;2022-07-22T07:35:06;35.28;;;32.83;;
56285;SDS011;42191;47.562;9.686;2022-07-22T07:37:32;34.40;;;31.85;;
56285;SDS011;42191;47.562;9.686;2022-07-22T07:39:58;34.67;;;32.28;;
56285;SDS011;42191;47.562;9.686;2022-07-22T07:42:25;35.08;;;32.53;;
56285;SDS011;42191;47.562;9.686;2022-07-22T07:44:52;35.83;;;33.13;;
56285;SDS011;42191;47.562;9.686;2022-07-22T07:47:18;34.95;;;32.35;;
56285;SDS011;42191;47.562;9.686;2022-07-22T07:49:45;34.05;;;31.65;;
56285;SDS011;42191;47.562;9.686;2022-07-22T07:52:12;35.95;;;33.28;;
56285;SDS011;42191;47.562;9.686;2022-07-22T07:54:39;34.65;;;32.13;;
56285;SDS011;42191;47.562;9.686;2022-07-22T07:57:09;34.92;;;32.42;;
56285;SDS011;42191;47.562;9.686;2022-07-22T07:59:36;33.05;;;30.65;;
56285;SDS011;42191;47.562;9.686;2022-07-22T08:02:03;35.53;;;32.78;;
56285;SDS011;42191;47.562;9.686;2022-07-22T08:04:30;34.13;;;31.63;;
56285;SDS011;42191;47.562;9.686;2022-07-22T08:06:56;34.95;;;32.45;;
56285;SDS011;42191;47.562;9.686;2022-07-22T08:09:23;33.60;;;30.98;;
56285;SDS011;42191;47.562;9.686;2022-07-22T08:11:49;32.88;;;30.30;;
56285;SDS011;42191;47.562;9.686;2022-07-22T08:14:15;33.92;;;31.48;;
56285;SDS011;42191;47.562;9.686;2022-07-22T08:16:42;34.83;;;32.35;;
56285;SDS011;42191;47.562;9.686;2022-07-22T08:19:08;34.85;;;32.35;;
56285;SDS011;42191;47.562;9.686;2022-07-22T08:21:34;35.90;;;33.10;;
56285;SDS011;42191;47.562;9.686;2022-07-22T08:24:00;35.30;;;32.67;;
56285;SDS011;42191;47.562;9.686;2022-07-22T08:26:26;35.33;;;32.72;;
56285;SDS011;42191;47.562;9.686;2022-07-22T08:28:52;34.90;;;32.45;;
56285;SDS011;42191;47.562;9.686;2022-07-22T08:31:18;35.40;;;32.80;;
56285;SDS011;42191;47.562;9.686;2022-07-22T08:33:45;35.83;;;33.25;;
56285;SDS011;42191;47.562;9.686;2022-07-22T08:36:11;34.53;;;31.98;;
56285;SDS011;42191;47.562;9.686;2022-07-22T08:38:37;34.38;;;31.67;;
56285;SDS011;42191;47.562;9.686;2022-07-22T08:41:03;34.58;;;32.05;;
56285;SDS011;42191;47.562;9.686;2022-07-22T08:43:30;35.53;;;32.83;;
56285;SDS011;42191;47.562;9.686;2022-07-22T08:45:59;35.33;;;32.78;;
56285;SDS011;42191;47.562;9.686;2022-07-22T08:48:26;35.35;;;32.65;;
56285;SDS011;42191;47.562;9.686;2022-07-22T08:50:52;36.67;;;33.88;;
56285;SDS011;42191;47.562;9.686;2022-07-22T08:53:18;36.97;;;34.17;;
56285;SDS011;42191;47.562;9.686;2022-07-22T08:55:45;36.70;;;34.05;;
56285;SDS011;42191;47.562;9.686;2022-07-22T08:58:12;37.33;;;34.63;;
56285;SDS011;42191;47.562;9.686;2022-07-22T09:00:39;36.70;;;33.90;;
56285;SDS011;42191;47.562;9.686;2022-07-22T09:05:51;35.90;;;33.00;;
56285;SDS011;42191;47.562;9.686;2022-07-22T09:08:18;37.92;;;35.08;;
56285;SDS011;42191;47.562;9.686;2022-07-22T09:10:45;37.58;;;34.58;;
56285;SDS011;42191;47.562;9.686;2022-07-22T09:13:13;35.13;;;32.55;;
56285;SDS011;42191;47.562;9.686;2022-07-22T09:15:53;37.60;;;34.65;;
56285;SDS011;42191;47.562;9.686;2022-07-22T09:18:20;36.22;;;33.58;;
56285;SDS011;42191;47.562;9.686;2022-07-22T09:20:46;36.88;;;34.17;;
56285;SDS011;42191;47.562;9.686;2022-07-22T09:23:14;36.50;;;33.80;;
56285;SDS011;42191;47.562;9.686;2022-07-22T09:25:47;37.22;;;34.53;;
56285;SDS011;42191;47.562;9.686;2022-07-22T09:28:15;34.83;;;32.33;;
56285;SDS011;42191;47.562;9.686;2022-07-22T09:30:49;36.60;;;33.80;;
56285;SDS011;42191;47.562;9.686;2022-07-22T09:33:17;35.95;;;33.25;;
56285;SDS011;42191;47.562;9.686;2022-07-22T09:35:44;37.72;;;34.55;;
56285;SDS011;42191;47.562;9.686;2022-07-22T09:38:11;37.10;;;34.08;;
56285;SDS011;42191;47.562;9.686;2022-07-22T09:40:39;36.63;;;33.63;;
56285;SDS011;42191;47.562;9.686;2022-07-22T09:43:08;37.03;;;34.33;;
56285;SDS011;42191;47.562;9.686;2022-07-22T09:45:44;36.13;;;33.40;;
56285;SDS011;42191;47.562;9.686;2022-07-22T09:48:18;36.10;;;33.50;;
56285;SDS011;42191;47.562;9.686;2022-07-22T09:50:47;36.83;;;34.00;;
56285;SDS011;42191;47.562;9.686;2022-07-22T09:53:14;37.20;;;34.45;;
56285;SDS011;42191;47.562;9.686;2022-07-22T09:55:41;35.72;;;33.03;;
56285;SDS011;42191;47.562;9.686;2022-07-22T09:58:08;36.67;;;33.95;;
56285;SDS011;42191;47.562;9.686;2022-07-22T10:00:34;35.67;;;33.17;;
56285;SDS011;42191;47.562;9.686;2022-07-22T10:03:02;35.38;;;32.80;;
56285;SDS011;42191;47.562;9.686;2022-07-22T10:05:34;35.47;;;32.80;;
56285;SDS011;42191;47.562;9.686;2022-07-22T10:08:03;36.75;;;34.05;;
56285;SDS011;42191;47.562;9.686;2022-07-22T10:10:31;35.47;;;32.85;;
56285;SDS011;42191;47.562;9.686;2022-07-22T10:12:59;35.75;;;33.05;;
56285;SDS011;42191;47.562;9.686;2022-07-22T10:15:26;35.22;;;32.78;;
56285;SDS011;42191;47.562;9.686;2022-07-22T10:17:54;35.40;;;32.53;;
56285;SDS011;42191;47.562;9.686;2022-07-22T10:20:22;35.85;;;33.15;;
56285;SDS011;42191;47.562;9.686;2022-07-22T10:25:28;36.25;;;33.65;;
56285;SDS011;42191;47.562;9.686;2022-07-22T10:27:59;34.85;;;32.33;;
56285;SDS011;42191;47.562;9.686;2022-07-22T10:30:29;36.38;;;33.50;;
56285;SDS011;42191;47.562;9.686;2022-07-22T10:33:10;35.72;;;33.00;;
56285;SDS011;42191;47.562;9.686;2022-07-22T10:38:20;37.05;;;34.35;;
56285;SDS011;42191;47.562;9.686;2022-07-22T10:40:52;35.65;;;33.05;;
56285;SDS011;42191;47.562;9.686;2022-07-22T10:43:19;35.30;;;32.60;;
56285;SDS011;42191;47.562;9.686;2022-07-22T10:45:51;36.03;;;33.42;;
56285;SDS011;42191;47.562;9.686;2022-07-22T10:48:22;35.83;;;32.70;;
56285;SDS011;42191;47.562;9.686;2022-07-22T10:53:44;35.38;;;32.78;;
56285;SDS011;42191;47.562;9.686;2022-07-22T10:56:13;34.92;;;32.33;;
56285;SDS011;42191;47.562;9.686;2022-07-22T10:58:41;35.72;;;33.03;;
56285;SDS011;42191;47.562;9.686;2022-07-22T11:01:10;35.50;;;32.85;;
56285;SDS011;42191;47.562;9.686;2022-07-22T11:03:38;36.20;;;33.58;;
56285;SDS011;42191;47.562;9.686;2022-07-22T11:06:13;36.13;;;33.50;;
56285;SDS011;42191;47.562;9.686;2022-07-22T11:08:45;35.50;;;32.92;;
56285;SDS011;42191;47.562;9.686;2022-07-22T11:11:13;35.28;;;32.55;;
56285;SDS011;42191;47.562;9.686;2022-07-22T11:13:40;34.75;;;32.20;;
56285;SDS011;42191;47.562;9.686;2022-07-22T11:18:52;34.85;;;32.15;;
56285;SDS011;42191;47.562;9.686;2022-07-22T11:21:22;33.55;;;30.98;;
56285;SDS011;42191;47.562;9.686;2022-07-22T11:23:50;33.92;;;31.52;;
56285;SDS011;42191;47.562;9.686;2022-07-22T11:26:20;34.30;;;31.75;;
56285;SDS011;42191;47.562;9.686;2022-07-22T11:29:10;34.60;;;32.10;;
56285;SDS011;42191;47.562;9.686;2022-07-22T11:31:48;33.95;;;31.23;;
56285;SDS011;42191;47.562;9.686;2022-07-22T11:34:14;33.90;;;31.30;;
56285;SDS011;42191;47.562;9.686;2022-07-22T11:36:42;33.38;;;30.98;;
56285;SDS011;42191;47.562;9.686;2022-07-22T11:39:11;33.20;;;30.80;;
56285;SDS011;42191;47.562;9.686;2022-07-22T11:41:38;33.78;;;31.40;;
56285;SDS011;42191;47.562;9.686;2022-07-22T11:44:05;33.28;;;30.92;;
56285;SDS011;42191;47.562;9.686;2022-07-22T11:46:36;33.10;;;30.80;;
56285;SDS011;42191;47.562;9.686;2022-07-22T11:49:03;34.13;;;31.40;;
56285;SDS011;42191;47.562;9.686;2022-07-22T11:51:31;33.58;;;31.05;;
56285;SDS011;42191;47.562;9.686;2022-07-22T11:53:58;33.38;;;30.92;;
56285;SDS011;42191;47.562;9.686;2022-07-22T11:56:25;32.35;;;30.05;;
56285;SDS011;42191;47.562;9.686;2022-07-22T11:58:52;33.47;;;30.98;;
56285;SDS011;42191;47.562;9.686;2022-07-22T12:01:20;31.83;;;29.58;;
56285;SDS011;42191;47.562;9.686;2022-07-22T12:03:49;33.58;;;31.17;;
56285;SDS011;42191;47.562;9.686;2022-07-22T12:06:18;33.72;;;31.23;;
56285;SDS011;42191;47.562;9.686;2022-07-22T12:08:50;32.72;;;30.38;;
56285;SDS011;42191;47.562;9.686;2022-07-22T12:13:47;31.92;;;29.63;;
56285;SDS011;42191;47.562;9.686;2022-07-22T12:18:52;30.55;;;28.38;;
56285;SDS011;42191;47.562;9.686;2022-07-22T12:21:30;31.23;;;29.08;;
56285;SDS011;42191;47.562;9.686;2022-07-22T12:24:05;32.65;;;30.15;;
56285;SDS011;42191;47.562;9.686;2022-07-22T12:26:48;32.33;;;30.02;;
56285;SDS011;42191;47.562;9.686;2022-07-22T12:31:42;30.73;;;28.63;;
56285;SDS011;42191;47.562;9.686;2022-07-22T12:34:12;31.13;;;28.63;;
56285;SDS011;42191;47.562;9.686;2022-07-22T12:36:42;30.40;;;27.90;;
56285;SDS011;42191;47.562;9.686;2022-07-22T12:41:47;31.23;;;29.02;;
56285;SDS011;42191;47.562;9.686;2022-07-22T12:44:22;30.92;;;28.70;;
56285;SDS011;42191;47.562;9.686;2022-07-22T12:46:51;31.33;;;29.20;;
56285;SDS011;42191;47.562;9.686;2022-07-22T12:49:21;30.92;;;28.75;;
56285;SDS011;42191;47.562;9.686;2022-07-22T12:52:05;30.80;;;28.20;;
56285;SDS011;42191;47.562;9.686;2022-07-22T12:54:38;32.00;;;29.75;;
56285;SDS011;42191;47.562;9.686;2022-07-22T12:57:06;30.83;;;28.63;;
56285;SDS011;42191;47.562;9.686;2022-07-22T12:59:34;31.38;;;29.10;;
56285;SDS011;42191;47.562;9.686;2022-07-22T13:02:01;30.75;;;28.45;;
56285;SDS011;42191;47.562;9.686;2022-07-22T13:04:28;30.60;;;28.30;;
56285;SDS011;42191;47.562;9.686;2022-07-22T13:06:55;31.20;;;28.98;;
56285;SDS011;42191;47.562;9.686;2022-07-22T13:09:21;30.70;;;28.48;;
56285;SDS011;42191;47.562;9.686;2022-07-22T13:11:47;31.25;;;29.05;;
56285;SDS011;42191;47.562;9.686;2022-07-22T13:14:13;29.75;;;27.65;;
56285;SDS011;42191;47.562;9.686;2022-07-22T13:16:39;29.13;;;27.13;;
56285;SDS011;42191;47.562;9.686;2022-07-22T13:19:06;28.52;;;26.52;;
56285;SDS011;42191;47.562;9.686;2022-07-22T13:21:32;27.33;;;25.40;;
56285;SDS011;42191;47.562;9.686;2022-07-22T13:23:58;26.67;;;24.88;;
56285;SDS011;42191;47.562;9.686;2022-07-22T13:26:24;26.73;;;24.60;;
56285;SDS011;42191;47.562;9.686;2022-07-22T13:28:51;25.27;;;23.48;;
56285;SDS011;42191;47.562;9.686;2022-07-22T13:31:17;24.85;;;23.15;;
56285;SDS011;42191;47.562;9.686;2022-07-22T13:33:43;24.60;;;23.00;;
56285;SDS011;42191;47.562;9.686;2022-07-22T13:36:09;25.73;;;23.65;;
56285;SDS011;42191;47.562;9.686;2022-07-22T13:38:35;24.77;;;23.08;;
56285;SDS011;42191;47.562;9.686;2022-07-22T13:41:01;24.98;;;23.17;;
56285;SDS011;42191;47.562;9.686;2022-07-22T13:43:27;25.27;;;23.25;;
56285;SDS011;42191;47.562;9.686;2022-07-22T13:45:55;24.73;;;23.02;;
56285;SDS011;42191;47.562;9.686;2022-07-22T13:48:21;24.35;;;22.70;;
56285;SDS011;42191;47.562;9.686;2022-07-22T13:50:47;25.08;;;23.40;;
56285;SDS011;42191;47.562;9.686;2022-07-22T13:53:14;25.00;;;23.20;;
56285;SDS011;42191;47.562;9.686;2022-07-22T13:55:40;25.17;;;23.33;;
56285;SDS011;42191;47.562;9.686;2022-07-22T13:58:06;25.35;;;23.65;;
56285;SDS011;42191;47.562;9.686;2022-07-22T14:00:33;24.70;;;23.00;;
56285;SDS011;42191;47.562;9.686;2022-07-22T14:02:59;24.52;;;22.45;;
56285;SDS011;42191;47.562;9.686;2022-07-22T14:05:25;24.52;;;22.92;;
56285;SDS011;42191;47.562;9.686;2022-07-22T14:07:51;24.73;;;23.02;;
56285;SDS011;42191;47.562;9.686;2022-07-22T14:10:17;24.98;;;23.27;;
56285;SDS011;42191;47.562;9.686;2022-07-22T14:12:44;25.80;;;23.67;;
56285;SDS011;42191;47.562;9.686;2022-07-22T14:15:10;26.05;;;24.13;;
56285;SDS011;42191;47.562;9.686;2022-07-22T14:17:36;25.50;;;23.80;;
56285;SDS011;42191;47.562;9.686;2022-07-22T14:20:04;25.58;;;23.70;;
56285;SDS011;42191;47.562;9.686;2022-07-22T14:22:32;25.15;;;23.45;;
56285;SDS011;42191;47.562;9.686;2022-07-22T14:24:59;25.05;;;23.25;;
56285;SDS011;42191;47.562;9.686;2022-07-22T14:27:25;24.90;;;23.05;;
56285;SDS011;42191;47.562;9.686;2022-07-22T14:29:51;25.67;;;23.85;;
56285;SDS011;42191;47.562;9.686;2022-07-22T14:32:17;24.67;;;23.00;;
56285;SDS011;42191;47.562;9.686;2022-07-22T14:34:44;24.33;;;22.63;;
56285;SDS011;42191;47.562;9.686;2022-07-22T14:37:10;24.83;;;23.13;;
56285;SDS011;42191;47.562;9.686;2022-07-22T14:39:37;24.05;;;22.40;;
56285;SDS011;42191;47.562;9.686;2022-07-22T14:42:03;23.02;;;21.50;;
56285;SDS011;42191;47.562;9.686;2022-07-22T14:44:29;23.45;;;21.85;;